sensor_id;sensor_type;location;lat;lon;timestamp;P1;durP1;ratioP1;P2;durP2;ratioP2
80119;SDS011;69425;55.040;82.918;2023-06-14T00:07:27;4.53;;;0.88;;
80119;SDS011;69425;55.040;82.918;2023-06-14T00:12:34;1.83;;;1.10;;
80119;SDS011;69425;55.040;82.918;2023-06-14T00:17:35;2.72;;;1.27;;
80119;SDS011;69425;55.040;82.918;2023-06-14T00:22:38;2.58;;;1.40;;
80119;SDS011;69425;55.040;82.918;2023-06-14T00:27:39;3.95;;;2.47;;
80119;SDS011;69425;55.040;82.918;2023-06-14T00:32:40;4.65;;;2.60;;
80119;SDS011;69425;55.040;82.918;2023-06-14T00:37:43;4.60;;;2.72;;
80119;SDS011;69425;55.040;82.918;2023-06-14T00:42:45;4.20;;;2.60;;
80119;SDS011;69425;55.040;82.918;2023-06-14T00:47:46;5.68;;;2.45;;
80119;SDS011;69425;55.040;82.918;2023-06-14T00:52:49;22.88;;;4.30;;
80119;SDS011;69425;55.040;82.918;2023-06-14T00:57:50;7.45;;;2.60;;
80119;SDS011;69425;55.040;82.918;2023-06-14T01:02:52;5.30;;;2.65;;
80119;SDS011;69425;55.040;82.918;2023-06-14T01:07:59;5.43;;;2.40;;
80119;SDS011;69425;55.040;82.918;2023-06-14T01:13:11;4.72;;;2.60;;
80119;SDS011;69425;55.040;82.918;2023-06-14T01:18:15;11.25;;;3.08;;
80119;SDS011;69425;55.040;82.918;2023-06-14T01:23:20;4.03;;;2.33;;
80119;SDS011;69425;55.040;82.918;2023-06-14T01:28:22;6.35;;;2.72;;
80119;SDS011;69425;55.040;82.918;2023-06-14T01:33:25;7.95;;;2.95;;
80119;SDS011;69425;55.040;82.918;2023-06-14T01:38:29;5.75;;;2.42;;
80119;SDS011;69425;55.040;82.918;2023-06-14T01:43:31;10.70;;;4.00;;
80119;SDS011;69425;55.040;82.918;2023-06-14T01:48:34;7.93;;;2.83;;
80119;SDS011;69425;55.040;82.918;2023-06-14T01:53:36;4.75;;;2.70;;
80119;SDS011;69425;55.040;82.918;2023-06-14T01:58:38;5.70;;;3.10;;
80119;SDS011;69425;55.040;82.918;2023-06-14T02:03:39;7.05;;;2.60;;
80119;SDS011;69425;55.040;82.918;2023-06-14T02:08:42;7.82;;;3.20;;
80119;SDS011;69425;55.040;82.918;2023-06-14T02:13:43;12.15;;;3.58;;
80119;SDS011;69425;55.040;82.918;2023-06-14T02:18:44;8.65;;;2.85;;
80119;SDS011;69425;55.040;82.918;2023-06-14T02:23:47;5.20;;;3.25;;
80119;SDS011;69425;55.040;82.918;2023-06-14T02:28:48;6.57;;;3.17;;
80119;SDS011;69425;55.040;82.918;2023-06-14T02:33:49;3.63;;;1.50;;
80119;SDS011;69425;55.040;82.918;2023-06-14T02:38:52;3.95;;;1.33;;
80119;SDS011;69425;55.040;82.918;2023-06-14T02:43:53;2.10;;;1.42;;
80119;SDS011;69425;55.040;82.918;2023-06-14T02:48:55;5.28;;;1.80;;
80119;SDS011;69425;55.040;82.918;2023-06-14T02:53:57;5.47;;;1.73;;
80119;SDS011;69425;55.040;82.918;2023-06-14T02:58:59;3.38;;;1.45;;
80119;SDS011;69425;55.040;82.918;2023-06-14T03:04:00;1.90;;;1.00;;
80119;SDS011;69425;55.040;82.918;2023-06-14T03:09:03;1.80;;;1.27;;
80119;SDS011;69425;55.040;82.918;2023-06-14T03:14:04;2.08;;;1.10;;
80119;SDS011;69425;55.040;82.918;2023-06-14T03:19:06;3.47;;;1.13;;
80119;SDS011;69425;55.040;82.918;2023-06-14T03:24:09;1.52;;;1.15;;
80119;SDS011;69425;55.040;82.918;2023-06-14T03:29:10;2.38;;;1.30;;
80119;SDS011;69425;55.040;82.918;2023-06-14T03:34:11;2.28;;;0.95;;
80119;SDS011;69425;55.040;82.918;2023-06-14T03:39:14;1.48;;;1.38;;
80119;SDS011;69425;55.040;82.918;2023-06-14T03:44:15;1.88;;;1.00;;
80119;SDS011;69425;55.040;82.918;2023-06-14T03:49:17;2.33;;;1.30;;
80119;SDS011;69425;55.040;82.918;2023-06-14T03:54:20;1.83;;;1.15;;
80119;SDS011;69425;55.040;82.918;2023-06-14T03:59:21;4.38;;;1.27;;
80119;SDS011;69425;55.040;82.918;2023-06-14T04:04:22;3.25;;;1.00;;
80119;SDS011;69425;55.040;82.918;2023-06-14T04:09:25;3.83;;;1.63;;
80119;SDS011;69425;55.040;82.918;2023-06-14T04:14:26;2.15;;;0.85;;
80119;SDS011;69425;55.040;82.918;2023-06-14T04:19:27;4.03;;;2.65;;
80119;SDS011;69425;55.040;82.918;2023-06-14T04:24:30;2.85;;;2.05;;
80119;SDS011;69425;55.040;82.918;2023-06-14T04:29:31;2.97;;;1.50;;
80119;SDS011;69425;55.040;82.918;2023-06-14T04:34:32;4.03;;;2.80;;
80119;SDS011;69425;55.040;82.918;2023-06-14T04:39:35;7.35;;;3.50;;
80119;SDS011;69425;55.040;82.918;2023-06-14T04:44:36;5.35;;;3.17;;
80119;SDS011;69425;55.040;82.918;2023-06-14T04:49:37;4.50;;;3.30;;
80119;SDS011;69425;55.040;82.918;2023-06-14T04:54:40;5.25;;;3.65;;
80119;SDS011;69425;55.040;82.918;2023-06-14T04:59:41;6.18;;;3.92;;
80119;SDS011;69425;55.040;82.918;2023-06-14T05:04:42;4.45;;;3.70;;
80119;SDS011;69425;55.040;82.918;2023-06-14T05:09:45;6.18;;;4.47;;
80119;SDS011;69425;55.040;82.918;2023-06-14T05:14:46;4.90;;;4.30;;
80119;SDS011;69425;55.040;82.918;2023-06-14T05:19:48;9.43;;;5.90;;
80119;SDS011;69425;55.040;82.918;2023-06-14T05:24:50;7.50;;;5.30;;
80119;SDS011;69425;55.040;82.918;2023-06-14T05:29:51;6.85;;;5.43;;
80119;SDS011;69425;55.040;82.918;2023-06-14T05:34:53;7.78;;;6.07;;
80119;SDS011;69425;55.040;82.918;2023-06-14T05:39:55;10.10;;;7.35;;
80119;SDS011;69425;55.040;82.918;2023-06-14T05:44:57;7.93;;;5.85;;
80119;SDS011;69425;55.040;82.918;2023-06-14T05:49:58;11.00;;;7.75;;
80119;SDS011;69425;55.040;82.918;2023-06-14T05:55:01;11.70;;;8.90;;
80119;SDS011;69425;55.040;82.918;2023-06-14T06:00:05;13.25;;;9.90;;
80119;SDS011;69425;55.040;82.918;2023-06-14T06:05:10;16.17;;;11.80;;
80119;SDS011;69425;55.040;82.918;2023-06-14T06:10:13;15.65;;;11.75;;
80119;SDS011;69425;55.040;82.918;2023-06-14T06:15:15;17.52;;;13.25;;
80119;SDS011;69425;55.040;82.918;2023-06-14T06:20:16;20.00;;;15.98;;
80119;SDS011;69425;55.040;82.918;2023-06-14T06:25:19;19.02;;;13.10;;
80119;SDS011;69425;55.040;82.918;2023-06-14T06:30:20;16.25;;;11.80;;
80119;SDS011;69425;55.040;82.918;2023-06-14T06:35:21;15.52;;;10.15;;
80119;SDS011;69425;55.040;82.918;2023-06-14T06:40:24;12.68;;;9.10;;
80119;SDS011;69425;55.040;82.918;2023-06-14T06:45:25;10.90;;;8.52;;
80119;SDS011;69425;55.040;82.918;2023-06-14T06:50:27;11.48;;;8.10;;
80119;SDS011;69425;55.040;82.918;2023-06-14T06:55:29;7.97;;;6.47;;
80119;SDS011;69425;55.040;82.918;2023-06-14T07:00:31;8.32;;;5.70;;
80119;SDS011;69425;55.040;82.918;2023-06-14T07:05:32;6.85;;;5.18;;
80119;SDS011;69425;55.040;82.918;2023-06-14T07:10:34;6.53;;;4.47;;
80119;SDS011;69425;55.040;82.918;2023-06-14T07:15:36;5.65;;;3.33;;
80119;SDS011;69425;55.040;82.918;2023-06-14T07:20:37;3.80;;;3.35;;
80119;SDS011;69425;55.040;82.918;2023-06-14T07:25:40;3.60;;;3.25;;
80119;SDS011;69425;55.040;82.918;2023-06-14T07:30:41;3.95;;;3.05;;
80119;SDS011;69425;55.040;82.918;2023-06-14T07:35:42;4.22;;;3.83;;
80119;SDS011;69425;55.040;82.918;2023-06-14T07:40:45;7.78;;;3.92;;
80119;SDS011;69425;55.040;82.918;2023-06-14T07:45:46;7.35;;;3.42;;
80119;SDS011;69425;55.040;82.918;2023-06-14T07:50:48;5.30;;;4.15;;
80119;SDS011;69425;55.040;82.918;2023-06-14T07:55:50;4.22;;;3.83;;
80119;SDS011;69425;55.040;82.918;2023-06-14T08:00:51;7.93;;;3.65;;
80119;SDS011;69425;55.040;82.918;2023-06-14T08:05:53;7.05;;;4.03;;
80119;SDS011;69425;55.040;82.918;2023-06-14T08:10:55;6.28;;;4.18;;
80119;SDS011;69425;55.040;82.918;2023-06-14T08:15:57;6.22;;;4.55;;
80119;SDS011;69425;55.040;82.918;2023-06-14T08:20:58;6.72;;;5.70;;
80119;SDS011;69425;55.040;82.918;2023-06-14T08:26:01;5.95;;;4.97;;
80119;SDS011;69425;55.040;82.918;2023-06-14T08:31:02;6.35;;;5.75;;
80119;SDS011;69425;55.040;82.918;2023-06-14T08:36:04;7.75;;;4.80;;
80119;SDS011;69425;55.040;82.918;2023-06-14T08:41:06;9.48;;;6.38;;
80119;SDS011;69425;55.040;82.918;2023-06-14T08:46:08;7.25;;;6.22;;
80119;SDS011;69425;55.040;82.918;2023-06-14T08:51:10;7.80;;;7.03;;
80119;SDS011;69425;55.040;82.918;2023-06-14T08:56:13;8.20;;;7.40;;
80119;SDS011;69425;55.040;82.918;2023-06-14T09:01:14;8.82;;;6.82;;
80119;SDS011;69425;55.040;82.918;2023-06-14T09:06:16;9.35;;;8.10;;
80119;SDS011;69425;55.040;82.918;2023-06-14T09:11:19;10.10;;;7.75;;
80119;SDS011;69425;55.040;82.918;2023-06-14T09:16:20;8.80;;;7.55;;
80119;SDS011;69425;55.040;82.918;2023-06-14T09:21:21;8.15;;;7.20;;
80119;SDS011;69425;55.040;82.918;2023-06-14T09:26:24;10.65;;;7.03;;
80119;SDS011;69425;55.040;82.918;2023-06-14T09:31:25;8.68;;;6.78;;
80119;SDS011;69425;55.040;82.918;2023-06-14T09:36:26;7.93;;;6.93;;
80119;SDS011;69425;55.040;82.918;2023-06-14T09:41:32;10.10;;;7.18;;
80119;SDS011;69425;55.040;82.918;2023-06-14T09:46:34;9.73;;;7.18;;
80119;SDS011;69425;55.040;82.918;2023-06-14T09:51:37;9.50;;;6.90;;
80119;SDS011;69425;55.040;82.918;2023-06-14T09:56:45;8.27;;;6.50;;
80119;SDS011;69425;55.040;82.918;2023-06-14T10:01:47;8.05;;;6.15;;
80119;SDS011;69425;55.040;82.918;2023-06-14T10:06:49;7.15;;;5.88;;
80119;SDS011;69425;55.040;82.918;2023-06-14T10:11:53;10.65;;;5.72;;
80119;SDS011;69425;55.040;82.918;2023-06-14T10:16:55;7.93;;;6.07;;
80119;SDS011;69425;55.040;82.918;2023-06-14T10:22:00;10.18;;;6.68;;
80119;SDS011;69425;55.040;82.918;2023-06-14T10:27:05;7.53;;;6.72;;
80119;SDS011;69425;55.040;82.918;2023-06-14T10:32:07;7.28;;;6.32;;
80119;SDS011;69425;55.040;82.918;2023-06-14T10:37:11;7.53;;;6.22;;
80119;SDS011;69425;55.040;82.918;2023-06-14T10:42:14;7.05;;;5.78;;
80119;SDS011;69425;55.040;82.918;2023-06-14T10:47:26;6.85;;;4.95;;
80119;SDS011;69425;55.040;82.918;2023-06-14T10:52:28;6.50;;;5.57;;
80119;SDS011;69425;55.040;82.918;2023-06-14T10:57:30;7.95;;;5.85;;
80119;SDS011;69425;55.040;82.918;2023-06-14T11:08:15;6.40;;;5.03;;
80119;SDS011;69425;55.040;82.918;2023-06-14T11:13:26;7.63;;;5.10;;
80119;SDS011;69425;55.040;82.918;2023-06-14T11:18:28;7.45;;;5.30;;
80119;SDS011;69425;55.040;82.918;2023-06-14T11:23:29;7.05;;;4.93;;
80119;SDS011;69425;55.040;82.918;2023-06-14T11:28:38;8.80;;;5.25;;
80119;SDS011;69425;55.040;82.918;2023-06-14T11:33:40;6.65;;;5.70;;
80119;SDS011;69425;55.040;82.918;2023-06-14T11:38:41;6.53;;;5.32;;
80119;SDS011;69425;55.040;82.918;2023-06-14T11:43:44;8.95;;;5.70;;
80119;SDS011;69425;55.040;82.918;2023-06-14T11:48:45;6.85;;;4.97;;
80119;SDS011;69425;55.040;82.918;2023-06-14T11:53:46;8.13;;;5.53;;
80119;SDS011;69425;55.040;82.918;2023-06-14T11:58:49;5.88;;;5.13;;
80119;SDS011;69425;55.040;82.918;2023-06-14T12:03:50;7.78;;;5.28;;
80119;SDS011;69425;55.040;82.918;2023-06-14T12:08:55;8.35;;;5.53;;
80119;SDS011;69425;55.040;82.918;2023-06-14T12:13:57;7.38;;;5.30;;
80119;SDS011;69425;55.040;82.918;2023-06-14T12:19:09;6.38;;;5.55;;
80119;SDS011;69425;55.040;82.918;2023-06-14T12:24:12;8.02;;;5.15;;
80119;SDS011;69425;55.040;82.918;2023-06-14T12:29:15;6.25;;;5.22;;
80119;SDS011;69425;55.040;82.918;2023-06-14T12:34:16;6.35;;;5.40;;
80119;SDS011;69425;55.040;82.918;2023-06-14T12:39:17;6.28;;;4.88;;
80119;SDS011;69425;55.040;82.918;2023-06-14T12:44:20;7.30;;;5.43;;
80119;SDS011;69425;55.040;82.918;2023-06-14T12:49:21;6.60;;;4.95;;
80119;SDS011;69425;55.040;82.918;2023-06-14T12:54:22;7.63;;;5.03;;
80119;SDS011;69425;55.040;82.918;2023-06-14T12:59:25;7.40;;;5.40;;
80119;SDS011;69425;55.040;82.918;2023-06-14T13:04:26;6.63;;;5.03;;
80119;SDS011;69425;55.040;82.918;2023-06-14T13:09:28;8.60;;;5.03;;
80119;SDS011;69425;55.040;82.918;2023-06-14T13:14:30;6.40;;;4.65;;
80119;SDS011;69425;55.040;82.918;2023-06-14T13:19:31;5.43;;;4.47;;
80119;SDS011;69425;55.040;82.918;2023-06-14T13:24:33;5.43;;;4.60;;
80119;SDS011;69425;55.040;82.918;2023-06-14T13:29:35;7.75;;;4.90;;
80119;SDS011;69425;55.040;82.918;2023-06-14T13:34:36;10.23;;;4.93;;
80119;SDS011;69425;55.040;82.918;2023-06-14T13:39:38;7.57;;;4.90;;
80119;SDS011;69425;55.040;82.918;2023-06-14T13:44:41;7.75;;;4.88;;
80119;SDS011;69425;55.040;82.918;2023-06-14T13:49:42;5.50;;;4.22;;
80119;SDS011;69425;55.040;82.918;2023-06-14T13:54:43;6.32;;;5.00;;
80119;SDS011;69425;55.040;82.918;2023-06-14T13:59:46;5.60;;;4.55;;
80119;SDS011;69425;55.040;82.918;2023-06-14T14:04:47;5.65;;;4.40;;
80119;SDS011;69425;55.040;82.918;2023-06-14T14:09:48;7.10;;;5.07;;
80119;SDS011;69425;55.040;82.918;2023-06-14T14:14:51;6.15;;;4.35;;
80119;SDS011;69425;55.040;82.918;2023-06-14T14:19:52;10.30;;;5.13;;
80119;SDS011;69425;55.040;82.918;2023-06-14T14:24:53;9.35;;;4.60;;
80119;SDS011;69425;55.040;82.918;2023-06-14T14:29:56;5.32;;;4.45;;
80119;SDS011;69425;55.040;82.918;2023-06-14T14:34:57;6.03;;;4.13;;
80119;SDS011;69425;55.040;82.918;2023-06-14T14:39:59;11.38;;;4.57;;
80119;SDS011;69425;55.040;82.918;2023-06-14T14:45:01;7.03;;;4.40;;
80119;SDS011;69425;55.040;82.918;2023-06-14T14:50:06;6.00;;;4.38;;
80119;SDS011;69425;55.040;82.918;2023-06-14T14:55:09;6.90;;;4.40;;
80119;SDS011;69425;55.040;82.918;2023-06-14T15:00:13;7.30;;;4.53;;
80119;SDS011;69425;55.040;82.918;2023-06-14T15:05:14;9.90;;;5.03;;
80119;SDS011;69425;55.040;82.918;2023-06-14T15:10:15;8.85;;;4.70;;
80119;SDS011;69425;55.040;82.918;2023-06-14T15:15:18;8.20;;;4.28;;
80119;SDS011;69425;55.040;82.918;2023-06-14T15:20:19;6.68;;;3.80;;
80119;SDS011;69425;55.040;82.918;2023-06-14T15:25:21;7.05;;;4.38;;
80119;SDS011;69425;55.040;82.918;2023-06-14T15:30:23;6.85;;;4.40;;
80119;SDS011;69425;55.040;82.918;2023-06-14T15:35:25;9.77;;;4.78;;
80119;SDS011;69425;55.040;82.918;2023-06-14T15:40:26;6.88;;;4.38;;
80119;SDS011;69425;55.040;82.918;2023-06-14T15:45:29;7.03;;;5.00;;
80119;SDS011;69425;55.040;82.918;2023-06-14T15:50:30;6.82;;;5.05;;
80119;SDS011;69425;55.040;82.918;2023-06-14T15:55:31;9.55;;;4.63;;
80119;SDS011;69425;55.040;82.918;2023-06-14T16:00:34;9.85;;;4.38;;
80119;SDS011;69425;55.040;82.918;2023-06-14T16:05:35;7.95;;;4.93;;
80119;SDS011;69425;55.040;82.918;2023-06-14T16:10:36;6.57;;;4.32;;
80119;SDS011;69425;55.040;82.918;2023-06-14T16:15:39;6.97;;;4.43;;
80119;SDS011;69425;55.040;82.918;2023-06-14T16:20:40;5.70;;;4.10;;
80119;SDS011;69425;55.040;82.918;2023-06-14T16:25:41;10.85;;;3.88;;
80119;SDS011;69425;55.040;82.918;2023-06-14T16:30:44;5.75;;;3.95;;
80119;SDS011;69425;55.040;82.918;2023-06-14T16:35:45;5.85;;;4.43;;
80119;SDS011;69425;55.040;82.918;2023-06-14T16:40:46;9.60;;;4.00;;
80119;SDS011;69425;55.040;82.918;2023-06-14T16:45:49;7.63;;;3.72;;
80119;SDS011;69425;55.040;82.918;2023-06-14T16:50:50;6.47;;;4.60;;
80119;SDS011;69425;55.040;82.918;2023-06-14T16:55:52;7.45;;;4.03;;
80119;SDS011;69425;55.040;82.918;2023-06-14T17:00:54;9.45;;;4.93;;
80119;SDS011;69425;55.040;82.918;2023-06-14T17:05:56;9.90;;;4.78;;
80119;SDS011;69425;55.040;82.918;2023-06-14T17:10:57;7.82;;;4.18;;
80119;SDS011;69425;55.040;82.918;2023-06-14T17:16:00;9.23;;;4.70;;
80119;SDS011;69425;55.040;82.918;2023-06-14T17:21:02;6.45;;;4.32;;
80119;SDS011;69425;55.040;82.918;2023-06-14T17:26:03;5.47;;;4.18;;
80119;SDS011;69425;55.040;82.918;2023-06-14T17:31:06;6.80;;;3.85;;
80119;SDS011;69425;55.040;82.918;2023-06-14T17:36:07;11.57;;;4.70;;
80119;SDS011;69425;55.040;82.918;2023-06-14T17:41:08;10.05;;;4.22;;
80119;SDS011;69425;55.040;82.918;2023-06-14T17:46:11;7.93;;;5.10;;
80119;SDS011;69425;55.040;82.918;2023-06-14T17:51:12;9.10;;;4.57;;
80119;SDS011;69425;55.040;82.918;2023-06-14T17:56:26;9.23;;;4.80;;
80119;SDS011;69425;55.040;82.918;2023-06-14T18:01:29;9.98;;;4.35;;
80119;SDS011;69425;55.040;82.918;2023-06-14T18:06:30;9.75;;;4.10;;
80119;SDS011;69425;55.040;82.918;2023-06-14T18:11:31;9.32;;;4.18;;
80119;SDS011;69425;55.040;82.918;2023-06-14T18:16:34;7.00;;;3.83;;
80119;SDS011;69425;55.040;82.918;2023-06-14T18:21:35;8.98;;;4.63;;
80119;SDS011;69425;55.040;82.918;2023-06-14T18:26:36;8.00;;;4.43;;
80119;SDS011;69425;55.040;82.918;2023-06-14T18:31:39;7.88;;;4.38;;
80119;SDS011;69425;55.040;82.918;2023-06-14T18:36:40;9.55;;;4.85;;
80119;SDS011;69425;55.040;82.918;2023-06-14T18:41:41;9.55;;;4.82;;
80119;SDS011;69425;55.040;82.918;2023-06-14T18:46:45;7.22;;;4.55;;
80119;SDS011;69425;55.040;82.918;2023-06-14T18:51:46;7.93;;;4.40;;
80119;SDS011;69425;55.040;82.918;2023-06-14T18:56:48;7.55;;;4.78;;
80119;SDS011;69425;55.040;82.918;2023-06-14T19:01:50;8.00;;;4.03;;
80119;SDS011;69425;55.040;82.918;2023-06-14T19:06:52;8.00;;;3.88;;
80119;SDS011;69425;55.040;82.918;2023-06-14T19:11:53;10.73;;;4.68;;
80119;SDS011;69425;55.040;82.918;2023-06-14T19:16:55;8.27;;;4.38;;
80119;SDS011;69425;55.040;82.918;2023-06-14T19:21:57;10.35;;;5.00;;
80119;SDS011;69425;55.040;82.918;2023-06-14T19:26:58;6.75;;;4.53;;
80119;SDS011;69425;55.040;82.918;2023-06-14T19:32:01;7.38;;;4.60;;
80119;SDS011;69425;55.040;82.918;2023-06-14T19:37:02;9.25;;;4.82;;
80119;SDS011;69425;55.040;82.918;2023-06-14T19:42:04;9.68;;;5.28;;
80119;SDS011;69425;55.040;82.918;2023-06-14T19:47:07;8.07;;;5.03;;
80119;SDS011;69425;55.040;82.918;2023-06-14T19:52:08;7.35;;;4.65;;
80119;SDS011;69425;55.040;82.918;2023-06-14T19:57:09;8.35;;;5.32;;
80119;SDS011;69425;55.040;82.918;2023-06-14T20:02:12;8.55;;;4.78;;
80119;SDS011;69425;55.040;82.918;2023-06-14T20:07:13;10.40;;;4.82;;
80119;SDS011;69425;55.040;82.918;2023-06-14T20:12:14;10.43;;;5.20;;
80119;SDS011;69425;55.040;82.918;2023-06-14T20:17:17;10.55;;;5.45;;
80119;SDS011;69425;55.040;82.918;2023-06-14T20:22:18;10.25;;;5.18;;
80119;SDS011;69425;55.040;82.918;2023-06-14T20:27:19;7.97;;;5.53;;
80119;SDS011;69425;55.040;82.918;2023-06-14T20:32:22;10.57;;;4.95;;
80119;SDS011;69425;55.040;82.918;2023-06-14T20:37:23;12.50;;;5.85;;
80119;SDS011;69425;55.040;82.918;2023-06-14T20:42:25;10.90;;;5.40;;
80119;SDS011;69425;55.040;82.918;2023-06-14T20:47:27;11.32;;;6.90;;
80119;SDS011;69425;55.040;82.918;2023-06-14T20:52:28;7.15;;;5.05;;
80119;SDS011;69425;55.040;82.918;2023-06-14T20:57:30;8.55;;;5.90;;
80119;SDS011;69425;55.040;82.918;2023-06-14T21:02:32;11.35;;;5.28;;
80119;SDS011;69425;55.040;82.918;2023-06-14T21:07:33;9.30;;;6.03;;
80119;SDS011;69425;55.040;82.918;2023-06-14T21:12:35;11.77;;;5.57;;
80119;SDS011;69425;55.040;82.918;2023-06-14T21:17:37;9.40;;;5.38;;
80119;SDS011;69425;55.040;82.918;2023-06-14T21:22:39;9.98;;;5.30;;
80119;SDS011;69425;55.040;82.918;2023-06-14T21:27:40;8.35;;;5.28;;
80119;SDS011;69425;55.040;82.918;2023-06-14T21:32:42;10.80;;;5.75;;
80119;SDS011;69425;55.040;82.918;2023-06-14T21:37:44;12.88;;;6.15;;
80119;SDS011;69425;55.040;82.918;2023-06-14T21:42:45;9.57;;;5.63;;
80119;SDS011;69425;55.040;82.918;2023-06-14T21:47:48;11.13;;;4.97;;
80119;SDS011;69425;55.040;82.918;2023-06-14T21:52:49;10.85;;;6.18;;
80119;SDS011;69425;55.040;82.918;2023-06-14T21:57:50;8.52;;;5.70;;
80119;SDS011;69425;55.040;82.918;2023-06-14T22:02:53;6.35;;;5.03;;
80119;SDS011;69425;55.040;82.918;2023-06-14T22:07:54;10.98;;;6.15;;
80119;SDS011;69425;55.040;82.918;2023-06-14T22:12:55;8.90;;;5.70;;
80119;SDS011;69425;55.040;82.918;2023-06-14T22:17:58;8.55;;;5.60;;
80119;SDS011;69425;55.040;82.918;2023-06-14T22:22:59;8.02;;;5.05;;
80119;SDS011;69425;55.040;82.918;2023-06-14T22:28:00;9.55;;;5.25;;
80119;SDS011;69425;55.040;82.918;2023-06-14T22:33:03;7.50;;;4.68;;
80119;SDS011;69425;55.040;82.918;2023-06-14T22:38:04;6.95;;;4.63;;
80119;SDS011;69425;55.040;82.918;2023-06-14T22:43:05;6.90;;;4.70;;
80119;SDS011;69425;55.040;82.918;2023-06-14T22:48:08;7.15;;;4.45;;
80119;SDS011;69425;55.040;82.918;2023-06-14T22:53:09;5.47;;;3.90;;
80119;SDS011;69425;55.040;82.918;2023-06-14T22:58:10;7.53;;;4.32;;
80119;SDS011;69425;55.040;82.918;2023-06-14T23:03:13;7.78;;;4.40;;
80119;SDS011;69425;55.040;82.918;2023-06-14T23:08:15;7.68;;;4.78;;
80119;SDS011;69425;55.040;82.918;2023-06-14T23:13:16;5.82;;;4.20;;
80119;SDS011;69425;55.040;82.918;2023-06-14T23:18:18;7.47;;;4.38;;
80119;SDS011;69425;55.040;82.918;2023-06-14T23:23:20;7.78;;;3.78;;
80119;SDS011;69425;55.040;82.918;2023-06-14T23:28:21;6.55;;;3.78;;
80119;SDS011;69425;55.040;82.918;2023-06-14T23:33:24;7.05;;;3.70;;
80119;SDS011;69425;55.040;82.918;2023-06-14T23:38:25;6.95;;;4.55;;
80119;SDS011;69425;55.040;82.918;2023-06-14T23:43:26;5.95;;;4.03;;
80119;SDS011;69425;55.040;82.918;2023-06-14T23:48:31;6.18;;;5.22;;
80119;SDS011;69425;55.040;82.918;2023-06-14T23:53:32;7.75;;;4.82;;
80119;SDS011;69425;55.040;82.918;2023-06-14T23:58:33;7.72;;;4.28;;
